aviador You're here:

KADF Decoded Metar

in
Report Time2018-02-19 11:49:00
UTC Time2018-02-19 11:56:32
Flight Rules mvfr MVFR
WindCalm
Visibility4828 m
Phenomena:Mist
Clouds:Overcast 015 Hf
Ceiling1,500 ft
Temp11°C
Dew Point11°C (100% RH)
QNH1016 hPa
Raw Report
KADF 191149Z AUTO 00000KT 3SM BR OVC015 11/11 A2999 RMK AO2=

Extra information for KADF:More info

Social comments